createdAt,value
2023-03-11T00:02:43.049Z,1.92
2023-03-11T00:06:00.152Z,1.12
2023-03-11T00:09:08.712Z,1.30
2023-03-11T00:12:17.116Z,4.37
2023-03-11T00:15:34.049Z,1.93
2023-03-11T00:18:35.962Z,1.23
2023-03-11T00:21:51.090Z,2.03
2023-03-11T00:24:59.073Z,2.50
2023-03-11T00:28:07.674Z,2.10
2023-03-11T00:31:19.196Z,2.13
2023-03-11T00:34:34.117Z,2.92
2023-03-11T00:37:39.139Z,4.75
2023-03-11T00:40:55.073Z,1.52
2023-03-11T00:44:03.413Z,3.78
2023-03-11T00:47:19.084Z,1.20
2023-03-11T00:50:24.933Z,2.95
2023-03-11T00:53:40.085Z,2.70
2023-03-11T00:56:41.976Z,1.27
2023-03-11T00:59:57.082Z,1.35
2023-03-11T01:03:06.140Z,1.57
2023-03-11T01:06:21.101Z,2.40
2023-03-11T01:09:23.128Z,1.65
2023-03-11T01:12:38.094Z,1.77
2023-03-11T01:15:39.986Z,1.98
2023-03-11T01:18:55.134Z,1.57
2023-03-11T01:21:57.309Z,3.30
2023-03-11T01:25:13.126Z,2.25
2023-03-11T01:28:14.934Z,1.17
2023-03-11T01:31:30.147Z,2.33
2023-03-11T01:34:32.381Z,2.00
2023-03-11T01:37:47.209Z,3.53
2023-03-11T01:40:58.121Z,2.42
2023-03-11T01:44:13.410Z,1.92
2023-03-11T01:47:40.167Z,2.10
2023-03-11T01:50:57.129Z,1.80
2023-03-11T01:54:02.878Z,2.55
2023-03-11T01:57:20.176Z,2.15
2023-03-11T02:00:29.105Z,6.28
2023-03-11T02:03:40.754Z,1.67
2023-03-11T02:06:56.138Z,2.00
2023-03-11T02:10:05.302Z,2.60
2023-03-11T02:13:15.110Z,6.10
2023-03-11T02:16:30.237Z,2.05
2023-03-11T02:20:01.615Z,1.67
2023-03-11T02:23:10.124Z,3.23
2023-03-11T02:26:42.117Z,1.77
2023-03-11T02:29:51.713Z,4.35
2023-03-11T02:33:01.138Z,3.15
2023-03-11T02:36:38.140Z,2.90
2023-03-11T02:39:46.000Z,4.90
2023-03-11T02:43:05.220Z,6.00
2023-03-11T02:46:20.794Z,1.95
2023-03-11T02:49:37.175Z,4.62
2023-03-11T02:52:56.154Z,1.52
2023-03-11T02:55:58.010Z,4.13
2023-03-11T02:59:13.149Z,3.65
2023-03-11T03:02:21.198Z,3.15
2023-03-11T03:05:30.100Z,1.48
2023-03-11T03:08:38.164Z,5.25
2023-03-11T03:11:47.178Z,2.17
2023-03-11T03:14:55.217Z,1.92
2023-03-11T03:18:03.848Z,2.00
2023-03-11T03:21:18.185Z,2.00
2023-03-11T03:24:20.012Z,2.40
2023-03-11T03:27:35.169Z,1.63
2023-03-11T03:30:43.168Z,5.85
2023-03-11T03:33:52.185Z,3.42
2023-03-11T03:37:00.151Z,2.55
2023-03-11T03:40:16.205Z,2.15
2023-03-11T03:43:17.961Z,2.23
2023-03-11T03:46:33.230Z,1.20
2023-03-11T03:49:35.093Z,3.50
2023-03-11T03:52:50.145Z,2.28
2023-03-11T03:55:58.237Z,1.75
2023-03-11T03:59:13.194Z,2.00
2023-03-11T04:02:22.557Z,4.55
2023-03-11T04:05:37.197Z,2.80
2023-03-11T04:08:38.957Z,1.90
2023-03-11T04:11:54.215Z,4.22
2023-03-11T04:15:02.849Z,2.70
2023-03-11T04:18:12.249Z,3.05
2023-03-11T04:21:27.199Z,3.25
2023-03-11T04:24:35.792Z,1.25
2023-03-11T04:27:54.214Z,4.05
2023-03-11T04:30:56.036Z,1.10
2023-03-11T04:34:11.219Z,1.55
2023-03-11T04:37:26.191Z,2.12
2023-03-11T04:40:28.130Z,2.58
2023-03-11T04:43:43.302Z,2.15
2023-03-11T04:46:52.114Z,4.90
2023-03-11T04:50:07.267Z,7.82
2023-03-11T04:53:16.218Z,11.32
2023-03-11T04:56:24.882Z,16.90
2023-03-11T04:59:40.221Z,9.25
2023-03-11T05:02:49.205Z,16.67
2023-03-11T05:05:57.788Z,21.60
2023-03-11T05:09:06.198Z,19.33
2023-03-11T05:12:14.881Z,26.92
2023-03-11T05:15:23.212Z,22.60
2023-03-11T05:18:31.827Z,18.17
2023-03-11T05:21:40.331Z,20.23
2023-03-11T05:24:56.454Z,22.87
2023-03-11T05:28:05.453Z,13.77
2023-03-11T05:31:20.275Z,14.23
2023-03-11T05:34:29.196Z,21.10
2023-03-11T05:37:44.242Z,14.13
2023-03-11T05:40:59.216Z,7.37
2023-03-11T05:44:14.229Z,5.47
2023-03-11T05:47:17.849Z,9.50
2023-03-11T05:50:33.218Z,15.00
2023-03-11T05:53:50.252Z,22.08
2023-03-11T05:56:58.281Z,13.48
2023-03-11T06:00:08.671Z,14.82
2023-03-11T06:03:17.248Z,12.48
2023-03-11T06:06:32.248Z,7.50
2023-03-11T06:09:40.253Z,13.25
2023-03-11T06:12:48.885Z,7.00
2023-03-11T06:16:03.300Z,11.40
2023-03-11T06:19:05.223Z,13.70
2023-03-11T06:22:20.237Z,5.93
2023-03-11T06:25:22.081Z,4.50
2023-03-11T06:28:38.246Z,6.25
2023-03-11T06:31:40.943Z,3.47
2023-03-11T06:34:58.285Z,5.05
2023-03-11T06:38:00.029Z,2.73
2023-03-11T06:41:16.241Z,3.60
2023-03-11T06:44:24.581Z,2.90
2023-03-11T06:47:39.237Z,4.45
2023-03-11T06:50:48.490Z,5.45
2023-03-11T06:53:56.968Z,2.23
2023-03-11T06:57:05.309Z,2.53
2023-03-11T07:00:21.301Z,4.45
2023-03-11T07:03:37.325Z,3.97
2023-03-11T07:06:47.278Z,2.75
2023-03-11T07:09:56.981Z,2.03
2023-03-11T07:13:05.233Z,1.45
2023-03-11T07:16:23.345Z,5.65
2023-03-11T07:19:25.181Z,2.15
2023-03-11T07:22:40.266Z,3.20
2023-03-11T07:25:53.277Z,4.17
2023-03-11T07:29:02.224Z,2.08
2023-03-11T07:32:17.886Z,3.22
2023-03-11T07:35:25.947Z,3.22
2023-03-11T07:38:35.295Z,1.55
2023-03-11T07:41:51.288Z,1.73
2023-03-11T07:45:06.253Z,3.28
2023-03-11T07:48:14.969Z,1.67
2023-03-11T07:51:29.306Z,2.03
2023-03-11T07:54:37.869Z,4.57
2023-03-11T07:57:54.380Z,3.00
2023-03-11T08:00:56.961Z,5.18
2023-03-11T08:04:14.702Z,5.22
2023-03-11T08:07:23.346Z,4.57
2023-03-11T08:10:32.065Z,3.58
2023-03-11T08:13:41.315Z,1.90
2023-03-11T08:16:49.903Z,2.72
2023-03-11T08:19:58.296Z,2.67
2023-03-11T08:23:06.953Z,2.72
2023-03-11T08:26:18.302Z,5.90
2023-03-11T08:29:27.056Z,3.60
2023-03-11T08:32:35.356Z,2.20
2023-03-11T08:35:50.389Z,2.05
2023-03-11T08:38:52.834Z,3.03
2023-03-11T08:42:08.290Z,2.40
2023-03-11T08:45:23.307Z,2.20
2023-03-11T08:48:38.294Z,2.75
2023-03-11T08:51:40.378Z,7.07
2023-03-11T08:54:55.286Z,3.90
2023-03-11T08:58:03.351Z,8.90
2023-03-11T09:01:19.333Z,2.57
2023-03-11T09:04:29.361Z,2.50
2023-03-11T09:07:37.973Z,1.37
2023-03-11T09:10:46.281Z,3.15
2023-03-11T09:13:55.332Z,1.98
2023-03-11T09:17:03.329Z,5.37
2023-03-11T09:20:20.301Z,5.93
2023-03-11T09:23:28.334Z,1.92
2023-03-11T09:26:43.321Z,2.80
2023-03-11T09:29:45.155Z,3.67
2023-03-11T09:33:00.426Z,6.03
2023-03-11T09:36:36.311Z,2.35
2023-03-11T09:39:45.000Z,2.28
2023-03-11T09:43:12.363Z,3.10
2023-03-11T09:46:51.097Z,6.68
2023-03-11T09:50:25.334Z,1.77
2023-03-11T09:53:51.328Z,2.03
2023-03-11T09:56:53.488Z,2.97
2023-03-11T10:00:11.348Z,5.12
2023-03-11T10:03:31.932Z,9.15
2023-03-11T10:06:48.389Z,5.17
2023-03-11T10:09:58.874Z,6.80
2023-03-11T10:13:26.341Z,3.92
2023-03-11T10:17:07.350Z,3.30
2023-03-11T10:20:39.337Z,4.95
2023-03-11T10:24:08.721Z,3.07
2023-03-11T10:27:34.309Z,5.28
2023-03-11T10:30:58.356Z,7.28
2023-03-11T10:34:23.564Z,2.47
2023-03-11T10:37:48.911Z,9.77
2023-03-11T10:41:11.355Z,6.23
2023-03-11T10:44:19.168Z,5.65
2023-03-11T10:47:36.373Z,5.85
2023-03-11T10:51:20.376Z,7.47
2023-03-11T10:54:39.400Z,4.28
2023-03-11T10:57:41.177Z,6.53
2023-03-11T11:01:10.465Z,6.93
2023-03-11T11:04:27.426Z,8.07
2023-03-11T11:07:45.422Z,6.70
2023-03-11T11:10:53.592Z,5.05
2023-03-11T11:14:09.381Z,5.80
2023-03-11T11:17:24.560Z,2.75
2023-03-11T11:20:41.376Z,5.87
2023-03-11T11:24:02.130Z,3.83
2023-03-11T11:27:32.381Z,4.90
2023-03-11T11:31:08.424Z,5.97
2023-03-11T11:34:41.473Z,6.68
2023-03-11T11:38:02.382Z,2.45
2023-03-11T11:41:18.495Z,2.97
2023-03-11T11:44:40.403Z,4.45
2023-03-11T11:47:53.918Z,9.97
2023-03-11T11:51:14.374Z,3.60
2023-03-11T11:54:37.371Z,2.92
2023-03-11T11:57:46.750Z,3.65
2023-03-11T12:01:16.393Z,3.50
2023-03-11T12:04:51.460Z,7.70
2023-03-11T12:08:32.813Z,2.55
2023-03-11T12:12:01.417Z,4.28
2023-03-11T12:15:26.395Z,5.55
2023-03-11T12:18:56.499Z,10.27
2023-03-11T12:22:39.401Z,7.23
2023-03-11T12:26:07.384Z,3.30
2023-03-11T12:29:28.522Z,6.68
2023-03-11T12:32:50.415Z,5.80
2023-03-11T12:36:07.440Z,6.03
2023-03-11T12:39:30.418Z,10.13
2023-03-11T12:42:46.466Z,3.97
2023-03-11T12:46:12.458Z,3.22
2023-03-11T12:49:46.421Z,6.12
2023-03-11T12:53:00.389Z,7.97
2023-03-11T12:56:38.413Z,8.77
2023-03-11T13:00:25.417Z,2.58
2023-03-11T13:03:54.398Z,5.35
2023-03-11T13:07:24.391Z,7.00
2023-03-11T13:10:47.466Z,2.55
2023-03-11T13:13:49.442Z,3.43
2023-03-11T13:17:33.407Z,2.90
2023-03-11T13:20:52.570Z,5.62
2023-03-11T13:24:20.441Z,2.78
2023-03-11T13:27:41.054Z,8.38
2023-03-11T13:31:02.455Z,5.43
2023-03-11T13:34:24.438Z,6.82
2023-03-11T13:37:50.670Z,5.95
2023-03-11T13:41:00.486Z,4.50
2023-03-11T13:44:23.457Z,8.63
2023-03-11T13:47:40.474Z,6.67
2023-03-11T13:51:05.447Z,7.55
2023-03-11T13:54:39.438Z,3.55
2023-03-11T13:57:51.883Z,8.43
2023-03-11T14:01:05.492Z,7.32
2023-03-11T14:04:20.322Z,3.97
2023-03-11T14:07:35.663Z,10.10
2023-03-11T14:11:01.420Z,3.95
2023-03-11T14:14:27.809Z,6.20
2023-03-11T14:17:42.510Z,4.72
2023-03-11T14:20:51.706Z,7.07
2023-03-11T14:24:02.490Z,3.83
2023-03-11T14:27:22.428Z,5.15
2023-03-11T14:30:36.501Z,6.80
2023-03-11T14:33:54.837Z,4.82
2023-03-11T14:37:09.477Z,2.90
2023-03-11T14:40:32.521Z,3.83
2023-03-11T14:43:52.481Z,7.55
2023-03-11T14:47:16.527Z,5.72
2023-03-11T14:50:36.495Z,9.43
2023-03-11T14:53:57.447Z,5.83
2023-03-11T14:57:07.891Z,7.60
2023-03-11T15:00:30.481Z,9.70
2023-03-11T15:03:45.517Z,3.60
2023-03-11T15:06:55.340Z,6.47
2023-03-11T15:10:03.457Z,4.50
2023-03-11T15:13:22.514Z,6.72
2023-03-11T15:16:37.565Z,8.60
2023-03-11T15:19:52.465Z,11.77
2023-03-11T15:23:11.513Z,5.68
2023-03-11T15:26:36.595Z,4.27
2023-03-11T15:29:38.501Z,5.30
2023-03-11T15:32:54.547Z,4.72
2023-03-11T15:36:09.579Z,7.93
2023-03-11T15:39:26.577Z,9.57
2023-03-11T15:42:48.590Z,5.43
2023-03-11T15:45:58.840Z,6.43
2023-03-11T15:49:20.493Z,2.60
2023-03-11T15:52:35.470Z,5.03
2023-03-11T15:55:37.335Z,3.40
2023-03-11T15:58:52.472Z,7.70
2023-03-11T16:02:01.333Z,5.12
2023-03-11T16:05:22.519Z,4.73
2023-03-11T16:08:31.074Z,6.87
2023-03-11T16:11:51.514Z,6.62
2023-03-11T16:14:53.441Z,5.82
2023-03-11T16:18:11.648Z,4.55
2023-03-11T16:21:25.522Z,6.17
2023-03-11T16:24:34.224Z,4.70
2023-03-11T16:27:42.505Z,5.50
2023-03-11T16:30:59.535Z,3.97
2023-03-11T16:34:01.289Z,6.05
2023-03-11T16:37:20.695Z,4.40
2023-03-11T16:40:25.695Z,5.95
2023-03-11T16:43:40.493Z,5.93
2023-03-11T16:47:02.505Z,4.87
2023-03-11T16:50:11.640Z,4.57
2023-03-11T16:53:21.547Z,7.17
2023-03-11T16:56:30.080Z,12.75
2023-03-11T16:59:38.490Z,4.80
2023-03-11T17:02:53.549Z,5.10
2023-03-11T17:06:03.622Z,5.68
2023-03-11T17:09:12.529Z,3.30
2023-03-11T17:12:27.501Z,3.50
2023-03-11T17:15:35.549Z,4.45
2023-03-11T17:18:44.165Z,7.00
2023-03-11T17:21:52.538Z,6.05
2023-03-11T17:25:07.518Z,5.10
2023-03-11T17:28:09.657Z,5.03
2023-03-11T17:31:25.609Z,8.30
2023-03-11T17:34:34.289Z,4.18
2023-03-11T17:37:48.590Z,4.60
2023-03-11T17:40:57.282Z,4.43
2023-03-11T17:44:05.559Z,4.68
2023-03-11T17:47:20.867Z,7.37
2023-03-11T17:50:29.584Z,5.85
2023-03-11T17:53:47.539Z,4.97
2023-03-11T17:56:56.194Z,6.87
2023-03-11T18:00:11.558Z,6.10
2023-03-11T18:03:20.396Z,5.32
2023-03-11T18:06:35.569Z,6.55
2023-03-11T18:09:37.539Z,8.15
2023-03-11T18:12:53.560Z,4.87
2023-03-11T18:15:59.505Z,6.18
2023-03-11T18:19:15.545Z,6.97
2023-03-11T18:22:17.591Z,4.68
2023-03-11T18:25:32.560Z,9.10
2023-03-11T18:28:41.901Z,4.83
2023-03-11T18:31:50.563Z,8.80
2023-03-11T18:35:05.612Z,4.50
2023-03-11T18:38:20.580Z,7.82
2023-03-11T18:41:23.416Z,6.00
2023-03-11T18:44:38.582Z,5.97
2023-03-11T18:47:46.905Z,6.43
2023-03-11T18:51:02.585Z,5.82
2023-03-11T18:54:10.635Z,6.47
2023-03-11T18:57:19.135Z,6.28
2023-03-11T19:00:35.656Z,7.00
2023-03-11T19:03:44.555Z,8.40
2023-03-11T19:06:59.570Z,7.80
2023-03-11T19:10:15.571Z,5.45
2023-03-11T19:13:26.568Z,5.03
2023-03-11T19:16:47.591Z,5.63
2023-03-11T19:20:02.635Z,11.23
2023-03-11T19:23:11.440Z,6.28
2023-03-11T19:26:23.910Z,7.22
2023-03-11T19:29:36.218Z,7.93
2023-03-11T19:32:50.628Z,10.67
2023-03-11T19:36:00.681Z,8.75
2023-03-11T19:39:09.252Z,7.10
2023-03-11T19:42:17.672Z,5.95
2023-03-11T19:45:34.606Z,5.70
2023-03-11T19:48:49.608Z,5.97
2023-03-11T19:51:51.812Z,5.80
2023-03-11T19:55:06.743Z,7.72
2023-03-11T19:58:08.496Z,12.20
2023-03-11T20:01:26.681Z,7.35
2023-03-11T20:04:29.356Z,6.03
2023-03-11T20:07:43.649Z,7.30
2023-03-11T20:10:48.460Z,7.60
2023-03-11T20:14:04.714Z,7.43
2023-03-11T20:17:06.551Z,6.55
2023-03-11T20:20:21.632Z,6.07
2023-03-11T20:23:23.502Z,5.95
2023-03-11T20:26:38.593Z,7.62
2023-03-11T20:29:53.683Z,6.37
2023-03-11T20:33:02.414Z,6.05
2023-03-11T20:36:12.713Z,5.17
2023-03-11T20:39:27.643Z,6.12
2023-03-11T20:42:36.271Z,6.53
2023-03-11T20:45:50.692Z,6.80
2023-03-11T20:48:59.110Z,7.22
2023-03-11T20:52:13.664Z,7.93
2023-03-11T20:55:22.674Z,5.93
2023-03-11T20:58:31.379Z,5.65
2023-03-11T21:01:40.725Z,8.20
2023-03-11T21:04:49.176Z,6.07
2023-03-11T21:07:57.584Z,6.83
2023-03-11T21:11:07.106Z,6.25
2023-03-11T21:14:16.659Z,5.50
2023-03-11T21:17:25.343Z,8.13
2023-03-11T21:20:34.600Z,10.55
2023-03-11T21:23:50.658Z,8.30
2023-03-11T21:26:52.644Z,6.80
2023-03-11T21:30:08.692Z,6.50
2023-03-11T21:33:16.666Z,6.03
2023-03-11T21:36:31.798Z,6.75
2023-03-11T21:39:40.888Z,8.73
2023-03-11T21:42:49.774Z,4.60
2023-03-11T21:46:06.203Z,7.20
2023-03-11T21:49:23.740Z,6.45
2023-03-11T21:52:25.780Z,5.87
2023-03-11T21:55:40.718Z,7.67
2023-03-11T21:58:43.178Z,9.27
2023-03-11T22:01:57.745Z,5.90
2023-03-11T22:05:13.741Z,7.18
2023-03-11T22:08:15.720Z,6.53
2023-03-11T22:11:30.755Z,8.10
2023-03-11T22:14:42.109Z,11.60
2023-03-11T22:17:50.810Z,11.50
2023-03-11T22:21:08.685Z,5.07
2023-03-11T22:24:11.844Z,8.63
2023-03-11T22:27:26.682Z,8.00
2023-03-11T22:30:35.705Z,7.45
2023-03-11T22:33:44.341Z,6.65
2023-03-11T22:36:52.670Z,4.95
2023-03-11T22:40:01.228Z,4.45
2023-03-11T22:43:09.644Z,6.97
2023-03-11T22:46:32.685Z,5.80
2023-03-11T22:49:41.427Z,5.22
2023-03-11T22:52:56.686Z,6.50
2023-03-11T22:56:04.626Z,4.53
2023-03-11T22:59:19.672Z,4.57
2023-03-11T23:02:22.613Z,5.10
2023-03-11T23:05:37.702Z,5.65
2023-03-11T23:08:46.649Z,6.10
2023-03-11T23:11:55.337Z,6.72
2023-03-11T23:15:03.778Z,6.67
2023-03-11T23:18:20.789Z,7.07
2023-03-11T23:21:26.330Z,5.50
2023-03-11T23:24:40.678Z,6.85
2023-03-11T23:27:50.718Z,6.28
2023-03-11T23:31:09.736Z,6.13
2023-03-11T23:34:11.675Z,7.37
2023-03-11T23:37:26.713Z,5.78
2023-03-11T23:40:28.759Z,6.00
2023-03-11T23:43:44.670Z,5.93
2023-03-11T23:46:52.705Z,6.37
2023-03-11T23:50:15.662Z,6.12
2023-03-11T23:53:19.253Z,6.87
2023-03-11T23:56:33.712Z,4.53
2023-03-11T23:59:35.943Z,5.82
